createdAt,value
2019-05-03T00:00:39.636Z,9.40
2019-05-03T00:03:09.737Z,9.40
2019-05-03T00:05:45.684Z,9.40
2019-05-03T00:08:14.252Z,9.40
2019-05-03T00:10:42.721Z,9.40
2019-05-03T00:13:13.859Z,9.40
2019-05-03T00:15:46.710Z,9.40
2019-05-03T00:18:15.192Z,9.30
2019-05-03T00:20:43.704Z,9.30
2019-05-03T00:23:12.205Z,9.30
2019-05-03T00:25:43.646Z,9.30
2019-05-03T00:28:13.293Z,9.20
2019-05-03T00:30:42.378Z,9.20
2019-05-03T00:33:11.749Z,9.20
2019-05-03T00:35:43.671Z,9.20
2019-05-03T00:38:13.902Z,9.20
2019-05-03T00:40:42.374Z,9.20
2019-05-03T00:43:11.614Z,9.20
2019-05-03T00:45:42.134Z,9.10
2019-05-03T00:48:12.411Z,9.20
2019-05-03T00:50:42.617Z,9.10
2019-05-03T00:53:12.700Z,9.20
2019-05-03T00:55:42.717Z,9.10
2019-05-03T00:58:12.747Z,9.10
2019-05-03T01:00:44.028Z,9.10
2019-05-03T01:03:12.666Z,9.10
2019-05-03T01:05:44.114Z,9.10
2019-05-03T01:08:12.776Z,9.10
2019-05-03T01:10:42.111Z,9.10
2019-05-03T01:40:34.883Z,9.00
2019-05-03T01:43:03.336Z,8.90
2019-05-03T01:45:31.974Z,8.90
2019-05-03T01:48:02.133Z,8.90
2019-05-03T01:50:32.167Z,8.90
2019-05-03T01:53:02.259Z,9.00
2019-05-03T01:55:48.244Z,9.00
2019-05-03T01:58:16.710Z,8.90
2019-05-03T02:01:18.334Z,8.90
2019-05-03T02:03:57.357Z,8.90
2019-05-03T02:06:25.799Z,8.90
2019-05-03T02:08:54.254Z,8.90
2019-05-03T02:11:22.673Z,8.90
2019-05-03T02:13:52.200Z,8.90
2019-05-03T02:16:21.840Z,8.90
2019-05-03T02:18:51.857Z,8.90
2019-05-03T02:21:21.601Z,8.90
2019-05-03T02:23:52.061Z,8.90
2019-05-03T02:26:22.314Z,8.90
2019-05-03T02:28:52.606Z,8.90
2019-05-03T02:31:23.168Z,8.90
2019-05-03T02:33:53.430Z,8.90
2019-05-03T02:36:23.153Z,8.90
2019-05-03T02:38:53.480Z,8.90
2019-05-03T02:41:41.519Z,9.00
2019-05-03T02:44:10.318Z,9.00
2019-05-03T02:49:35.046Z,9.00
2019-05-03T02:52:02.964Z,8.90
2019-05-03T02:54:31.417Z,8.90
2019-05-03T02:56:59.861Z,9.00
2019-05-03T02:59:35.382Z,8.90
2019-05-03T03:02:06.386Z,8.90
2019-05-03T03:04:35.335Z,8.90
2019-05-03T03:07:05.673Z,8.90
2019-05-03T03:09:36.000Z,8.90
2019-05-03T03:12:06.733Z,8.90
2019-05-03T03:14:36.401Z,8.90
2019-05-03T03:17:06.797Z,8.80
2019-05-03T03:19:37.824Z,8.80
2019-05-03T03:22:10.199Z,8.80
2019-05-03T03:24:45.530Z,8.80
2019-05-03T03:27:16.567Z,8.80
2019-05-03T03:29:48.240Z,8.80
2019-05-03T03:32:29.344Z,8.80
2019-05-03T03:35:21.014Z,8.80
2019-05-03T03:37:46.557Z,8.70
2019-05-03T03:40:16.706Z,8.70
2019-05-03T03:45:41.043Z,8.60
2019-05-03T03:48:10.802Z,8.60
2019-05-03T03:50:41.694Z,8.60
2019-05-03T03:53:11.998Z,8.60
2019-05-03T03:55:45.596Z,8.60
2019-05-03T03:58:17.657Z,8.50
2019-05-03T04:00:46.159Z,8.50
2019-05-03T04:03:15.783Z,8.50
2019-05-03T04:05:46.487Z,8.50
2019-05-03T04:08:16.232Z,8.50
2019-05-03T04:10:46.369Z,8.50
2019-05-03T04:13:15.948Z,8.40
2019-05-03T04:15:49.034Z,8.40
2019-05-03T04:18:19.088Z,8.50
2019-05-03T04:20:47.587Z,8.40
2019-05-03T04:23:16.392Z,8.40
2019-05-03T04:25:45.579Z,8.40
2019-05-03T04:28:16.221Z,8.40
2019-05-03T04:30:46.189Z,8.40
2019-05-03T04:33:36.353Z,8.40
2019-05-03T04:36:05.587Z,8.40
2019-05-03T04:38:35.420Z,8.40
2019-05-03T04:41:05.869Z,8.30
2019-05-03T04:43:35.609Z,8.30
2019-05-03T04:46:07.929Z,8.30
2019-05-03T04:48:36.406Z,8.30
2019-05-03T04:51:25.885Z,8.30
2019-05-03T04:53:55.991Z,8.20
2019-05-03T04:56:35.986Z,8.20
2019-05-03T04:59:05.208Z,8.20
2019-05-03T05:01:35.272Z,8.10
2019-05-03T05:04:05.339Z,8.10
2019-05-03T05:06:35.013Z,8.10
2019-05-03T05:09:05.743Z,8.10
2019-05-03T05:11:35.083Z,8.20
2019-05-03T05:14:06.228Z,8.20
2019-05-03T05:16:35.579Z,8.20
2019-05-03T05:19:05.963Z,8.20
2019-05-03T05:21:36.221Z,8.20
2019-05-03T05:24:05.775Z,8.30
2019-05-03T05:26:36.209Z,8.30
2019-05-03T05:29:12.047Z,8.30
2019-05-03T05:31:40.491Z,8.40
2019-05-03T05:34:09.074Z,8.40
2019-05-03T05:36:37.487Z,8.50
2019-05-03T05:39:08.038Z,8.70
2019-05-03T05:41:36.457Z,9.10
2019-05-03T05:44:05.375Z,9.60
2019-05-03T05:46:35.679Z,10.00
2019-05-03T05:49:05.898Z,10.50
2019-05-03T05:51:35.341Z,10.70
2019-05-03T05:54:05.280Z,11.30
2019-05-03T05:56:35.549Z,11.20
2019-05-03T05:59:08.620Z,11.40
2019-05-03T06:01:38.931Z,12.10
2019-05-03T06:04:09.927Z,12.20
2019-05-03T06:06:45.192Z,12.10
2019-05-03T06:09:15.393Z,12.00
2019-05-03T06:11:48.180Z,11.90
2019-05-03T06:14:21.901Z,11.70
2019-05-03T06:16:57.717Z,11.90
2019-05-03T06:19:46.041Z,11.80
2019-05-03T06:22:19.125Z,11.60
2019-05-03T06:24:49.187Z,11.40
2019-05-03T06:27:19.253Z,11.20
2019-05-03T06:29:49.057Z,11.10
2019-05-03T06:32:27.866Z,11.30
2019-05-03T06:34:56.294Z,11.50
2019-05-03T06:37:26.358Z,11.50
2019-05-03T06:39:54.770Z,11.50
2019-05-03T06:42:25.333Z,11.70
2019-05-03T06:44:54.631Z,11.90
2019-05-03T06:47:25.180Z,13.10
2019-05-03T06:49:55.112Z,13.80
2019-05-03T06:52:27.632Z,13.90
2019-05-03T06:54:55.350Z,13.80
2019-05-03T06:57:25.364Z,14.10
2019-05-03T07:00:01.258Z,14.80
2019-05-03T07:02:31.320Z,15.30
2019-05-03T07:05:01.436Z,14.70
2019-05-03T07:07:31.522Z,15.90
2019-05-03T07:10:07.617Z,14.70
2019-05-03T07:15:35.161Z,14.50
2019-05-03T07:18:05.730Z,15.70
2019-05-03T07:23:32.245Z,15.10
2019-05-03T07:26:00.773Z,13.90
2019-05-03T07:28:29.247Z,14.00
2019-05-03T07:30:57.777Z,13.20
2019-05-03T07:33:34.666Z,13.10
2019-05-03T07:36:05.294Z,12.70
2019-05-03T07:38:40.157Z,12.40
2019-05-03T07:41:11.176Z,12.20
2019-05-03T07:43:40.213Z,12.20
2019-05-03T07:46:09.040Z,11.70
2019-05-03T07:48:37.526Z,11.40
2019-05-03T07:51:05.979Z,11.30
2019-05-03T07:53:35.974Z,11.40
2019-05-03T07:56:09.670Z,11.40
2019-05-03T07:58:39.931Z,11.70
2019-05-03T08:03:45.364Z,12.50
2019-05-03T08:06:14.925Z,12.90
2019-05-03T08:08:45.370Z,13.00
2019-05-03T08:11:14.434Z,13.00
2019-05-03T08:13:44.634Z,13.20
2019-05-03T08:16:13.274Z,13.20
2019-05-03T08:18:42.015Z,13.20
2019-05-03T08:21:12.018Z,12.90
2019-05-03T08:23:42.025Z,13.00
2019-05-03T08:26:12.142Z,13.10
2019-05-03T08:28:44.496Z,12.90
2019-05-03T08:31:35.991Z,12.80
2019-05-03T08:34:18.449Z,12.80
2019-05-03T08:39:41.963Z,12.40
2019-05-03T08:42:14.962Z,12.20
2019-05-03T08:48:35.431Z,11.90
2019-05-03T08:51:04.684Z,12.10
2019-05-03T08:53:35.580Z,12.20
2019-05-03T08:56:05.315Z,12.20
2019-05-03T08:58:34.794Z,12.30
2019-05-03T09:01:05.507Z,12.70
2019-05-03T09:03:36.414Z,13.00
2019-05-03T09:06:24.787Z,13.10
2019-05-03T09:08:56.893Z,13.60
2019-05-03T09:11:31.792Z,13.60
2019-05-03T09:14:01.316Z,13.70
2019-05-03T09:16:29.758Z,13.80
2019-05-03T09:18:58.296Z,13.70
2019-05-03T09:21:26.922Z,13.90
2019-05-03T09:23:55.609Z,13.80
2019-05-03T09:26:28.594Z,13.40
2019-05-03T09:31:50.367Z,13.90
2019-05-03T09:34:18.805Z,13.90
2019-05-03T09:36:47.252Z,13.60
2019-05-03T09:39:15.665Z,13.40
2019-05-03T09:41:45.053Z,13.00
2019-05-03T09:44:15.128Z,13.50
2019-05-03T09:46:44.603Z,14.10
2019-05-03T09:49:16.264Z,14.50
2019-05-03T09:51:44.419Z,14.80
2019-05-03T09:54:17.049Z,15.30
2019-05-03T09:56:58.666Z,15.70
2019-05-03T09:59:28.396Z,15.80
2019-05-03T10:01:57.079Z,17.10
2019-05-03T10:04:25.739Z,17.60
2019-05-03T10:06:54.775Z,17.90
2019-05-03T10:09:45.075Z,17.00
2019-05-03T10:12:16.196Z,15.70
2019-05-03T10:15:06.474Z,14.60
2019-05-03T10:17:36.742Z,14.10
2019-05-03T10:20:09.664Z,13.50
2019-05-03T10:22:38.079Z,13.50
2019-05-03T10:25:07.563Z,13.70
2019-05-03T10:27:45.896Z,14.00
2019-05-03T10:30:18.194Z,14.10
2019-05-03T10:32:53.771Z,14.00
2019-05-03T10:35:24.473Z,14.00
2019-05-03T10:37:54.911Z,14.10
2019-05-03T10:40:26.775Z,14.20
2019-05-03T10:42:55.777Z,14.50
2019-05-03T10:45:27.853Z,15.00
2019-05-03T10:47:54.460Z,15.50
2019-05-03T10:50:25.137Z,15.80
2019-05-03T10:52:57.250Z,15.40
2019-05-03T10:55:25.682Z,15.20
2019-05-03T10:58:15.986Z,15.00
2019-05-03T11:00:52.243Z,14.70
2019-05-03T11:03:17.119Z,14.50
2019-05-03T11:05:45.548Z,14.30
2019-05-03T11:08:14.579Z,14.40
2019-05-03T11:10:43.244Z,14.50
2019-05-03T11:13:11.977Z,14.50
2019-05-03T11:15:44.422Z,14.20
2019-05-03T11:18:14.730Z,14.20
2019-05-03T11:21:02.675Z,14.40
2019-05-03T11:23:31.117Z,14.60
2019-05-03T11:25:59.609Z,14.60
2019-05-03T11:28:28.088Z,14.60
2019-05-03T11:31:02.192Z,14.40
2019-05-03T11:33:29.972Z,14.40
2019-05-03T11:36:16.224Z,14.40
2019-05-03T11:39:06.566Z,14.40
2019-05-03T11:41:36.661Z,14.10
2019-05-03T11:44:24.590Z,14.00
2019-05-03T11:46:55.134Z,13.90
2019-05-03T11:49:25.314Z,13.70
2019-05-03T11:51:55.458Z,13.80
2019-05-03T11:54:24.950Z,13.80
2019-05-03T11:56:55.476Z,13.80
2019-05-03T11:59:25.421Z,14.00
2019-05-03T12:01:55.698Z,14.00
2019-05-03T12:04:24.933Z,14.00
2019-05-03T12:06:54.976Z,13.90
2019-05-03T12:09:23.737Z,13.80
2019-05-03T12:11:55.355Z,13.90
2019-05-03T12:14:24.473Z,14.00
2019-05-03T12:17:19.522Z,14.10
2019-05-03T12:19:36.932Z,14.10
2019-05-03T12:22:06.203Z,14.10
2019-05-03T12:24:36.407Z,13.90
2019-05-03T12:27:07.362Z,13.80
2019-05-03T12:29:35.795Z,13.80
2019-05-03T12:32:05.255Z,13.80
2019-05-03T12:34:35.196Z,13.80
2019-05-03T12:37:05.120Z,13.80
2019-05-03T12:39:35.718Z,13.60
2019-05-03T12:42:05.907Z,13.70
2019-05-03T12:44:35.458Z,13.70
2019-05-03T12:47:05.941Z,13.70
2019-05-03T12:49:35.781Z,13.80
2019-05-03T12:52:05.370Z,14.00
2019-05-03T12:54:55.062Z,14.10
2019-05-03T12:57:24.883Z,14.20
2019-05-03T12:59:55.687Z,14.30
2019-05-03T13:02:28.639Z,14.20
2019-05-03T13:05:05.873Z,14.10
2019-05-03T13:07:39.364Z,14.20
2019-05-03T13:10:09.881Z,14.20
2019-05-03T13:12:57.678Z,14.20
2019-05-03T13:15:26.167Z,14.20
2019-05-03T13:17:55.342Z,14.10
2019-05-03T13:20:25.078Z,14.10
2019-05-03T13:22:55.818Z,14.20
2019-05-03T13:25:25.772Z,14.00
2019-05-03T13:27:54.765Z,14.00
2019-05-03T13:30:25.106Z,14.00
2019-05-03T13:32:54.907Z,14.10
2019-05-03T13:35:44.650Z,14.10
2019-05-03T13:38:34.703Z,14.10
2019-05-03T13:41:02.658Z,14.10
2019-05-03T13:43:31.125Z,14.20
2019-05-03T13:45:59.562Z,14.10
2019-05-03T13:48:41.641Z,13.90
2019-05-03T13:50:58.136Z,13.90
2019-05-03T13:53:26.573Z,14.00
2019-05-03T13:55:55.332Z,14.00
2019-05-03T13:58:26.215Z,14.00
2019-05-03T14:00:54.994Z,14.00
2019-05-03T14:03:23.639Z,14.20
2019-05-03T14:05:52.060Z,14.20
2019-05-03T14:08:20.518Z,14.40
2019-05-03T14:10:48.972Z,14.30
2019-05-03T14:13:17.440Z,14.30
2019-05-03T14:15:45.875Z,14.30
2019-05-03T14:18:15.237Z,14.30
2019-05-03T14:21:02.070Z,14.40
2019-05-03T14:23:32.277Z,14.30
2019-05-03T14:26:00.708Z,14.30
2019-05-03T14:28:48.494Z,14.50
2019-05-03T14:31:16.979Z,14.50
2019-05-03T14:33:45.429Z,14.60
2019-05-03T14:36:15.985Z,14.60
2019-05-03T14:38:46.902Z,14.60
2019-05-03T14:41:15.088Z,14.70
2019-05-03T14:43:43.688Z,14.70
2019-05-03T14:46:12.131Z,14.90
2019-05-03T14:48:43.135Z,14.80
2019-05-03T14:51:11.679Z,14.70
2019-05-03T14:53:40.217Z,14.60
2019-05-03T14:56:14.963Z,14.60
2019-05-03T14:59:00.386Z,14.40
2019-05-03T15:01:34.719Z,14.30
2019-05-03T15:04:05.725Z,14.20
2019-05-03T15:06:35.439Z,14.10
2019-05-03T15:09:05.436Z,14.10
2019-05-03T15:11:34.541Z,14.00
2019-05-03T15:14:05.498Z,14.00
2019-05-03T15:16:34.408Z,13.90
2019-05-03T15:19:02.963Z,13.90
2019-05-03T15:21:31.398Z,13.90
2019-05-03T15:23:59.829Z,13.90
2019-05-03T15:26:28.293Z,13.90
2019-05-03T15:28:56.699Z,13.80
2019-05-03T15:31:25.196Z,13.80
2019-05-03T15:33:55.488Z,13.80
2019-05-03T15:36:24.084Z,13.70
2019-05-03T15:38:52.496Z,13.70
2019-05-03T15:41:21.033Z,13.50
2019-05-03T15:43:57.046Z,13.40
2019-05-03T15:46:32.939Z,13.30
2019-05-03T15:49:04.606Z,13.30
2019-05-03T15:51:33.027Z,13.20
2019-05-03T15:54:01.459Z,13.00
2019-05-03T15:56:29.876Z,12.90
2019-05-03T15:58:58.303Z,12.80
2019-05-03T16:01:27.146Z,12.70
2019-05-03T16:03:55.716Z,12.70
2019-05-03T16:06:24.810Z,12.80
2019-05-03T16:08:55.336Z,12.80
2019-05-03T16:11:25.444Z,12.80
2019-05-03T16:13:55.296Z,12.90
2019-05-03T16:16:24.861Z,12.90
2019-05-03T16:18:53.555Z,13.00
2019-05-03T16:21:22.031Z,13.00
2019-05-03T16:23:50.461Z,13.20
2019-05-03T16:26:18.892Z,13.20
2019-05-03T16:28:51.492Z,13.30
2019-05-03T16:31:26.258Z,13.40
2019-05-03T16:33:54.965Z,13.40
2019-05-03T16:36:23.719Z,13.40
2019-05-03T16:38:52.287Z,13.30
2019-05-03T16:41:36.656Z,13.30
2019-05-03T16:44:17.639Z,13.20
2019-05-03T16:46:46.099Z,13.20
2019-05-03T16:49:15.705Z,13.30
2019-05-03T16:51:44.357Z,13.30
2019-05-03T16:54:14.603Z,13.30
2019-05-03T16:56:44.419Z,13.40
2019-05-03T16:59:14.795Z,13.40
2019-05-03T17:01:44.498Z,13.40
2019-05-03T17:04:29.624Z,13.30
2019-05-03T17:07:02.371Z,13.30
2019-05-03T17:09:51.947Z,13.30
2019-05-03T17:12:31.059Z,13.30
2019-05-03T17:14:59.501Z,13.30
2019-05-03T17:17:27.942Z,13.30
2019-05-03T17:19:56.407Z,13.30
2019-05-03T17:22:25.238Z,13.30
2019-05-03T17:24:53.787Z,13.20
2019-05-03T17:27:24.864Z,13.20
2019-05-03T17:29:55.071Z,13.10
2019-05-03T17:32:24.547Z,13.10
2019-05-03T17:34:54.818Z,13.10
2019-05-03T17:37:25.456Z,13.10
2019-05-03T17:39:57.588Z,13.10
2019-05-03T17:42:45.197Z,13.00
2019-05-03T17:45:15.460Z,13.00
2019-05-03T17:47:45.441Z,12.90
2019-05-03T17:50:14.767Z,12.90
2019-05-03T17:52:54.551Z,12.80
2019-05-03T17:55:41.222Z,12.70
2019-05-03T17:58:34.956Z,12.70
2019-05-03T18:01:07.846Z,12.60
2019-05-03T18:03:44.929Z,12.50
2019-05-03T18:06:20.895Z,12.50
2019-05-03T18:08:55.125Z,12.40
2019-05-03T18:11:25.375Z,12.30
2019-05-03T18:13:59.187Z,12.20
2019-05-03T18:16:27.898Z,12.10
2019-05-03T18:18:59.897Z,12.10
2019-05-03T18:21:35.220Z,12.10
2019-05-03T18:24:04.889Z,12.00
2019-05-03T18:26:35.381Z,11.90
2019-05-03T18:29:05.627Z,11.80
2019-05-03T18:31:33.925Z,11.80
2019-05-03T18:34:02.427Z,11.70
2019-05-03T18:36:39.611Z,11.70
2019-05-03T18:39:08.191Z,11.60
2019-05-03T18:41:36.647Z,11.60
2019-05-03T18:44:22.658Z,11.50
2019-05-03T18:46:54.938Z,11.50
2019-05-03T18:49:24.681Z,11.40
2019-05-03T18:51:55.177Z,11.40
2019-05-03T18:54:24.599Z,11.30
2019-05-03T18:57:12.648Z,11.30
2019-05-03T18:59:42.634Z,11.20
2019-05-03T19:02:12.586Z,11.20
2019-05-03T19:04:45.203Z,11.20
2019-05-03T19:07:18.144Z,11.10
2019-05-03T19:09:48.255Z,11.10
2019-05-03T19:15:17.998Z,11.00
2019-05-03T19:17:54.703Z,11.00
2019-05-03T19:23:18.656Z,10.90
2019-05-03T19:25:49.584Z,10.80
2019-05-03T19:28:17.277Z,10.80
2019-05-03T19:30:46.623Z,10.70
2019-05-03T19:33:15.107Z,10.70
2019-05-03T19:35:44.461Z,10.70
2019-05-03T19:38:15.077Z,10.70
2019-05-03T19:40:45.031Z,10.70
2019-05-03T19:43:15.155Z,10.60
2019-05-03T19:45:44.897Z,10.60
2019-05-03T19:48:14.698Z,10.60
2019-05-03T19:51:03.236Z,10.50
2019-05-03T19:53:33.285Z,10.50
2019-05-03T19:56:01.729Z,10.50
2019-05-03T19:58:30.127Z,10.40
2019-05-03T20:01:16.200Z,10.40
2019-05-03T20:07:01.432Z,10.30
2019-05-03T20:09:29.963Z,10.20
2019-05-03T20:11:58.785Z,10.20
2019-05-03T20:14:27.212Z,10.20
2019-05-03T20:16:55.643Z,10.10
2019-05-03T20:19:25.690Z,10.10
2019-05-03T20:21:56.677Z,10.00
2019-05-03T20:24:25.326Z,10.00
2019-05-03T20:26:54.039Z,9.90
2019-05-03T20:29:22.452Z,9.90
2019-05-03T20:31:50.903Z,9.80
2019-05-03T20:34:19.344Z,9.70
2019-05-03T20:36:47.780Z,9.70
2019-05-03T20:39:16.189Z,9.70
2019-05-03T20:41:45.336Z,9.70
2019-05-03T20:44:18.584Z,9.60
2019-05-03T20:47:00.782Z,9.60
2019-05-03T20:49:29.214Z,9.60
2019-05-03T20:51:57.649Z,9.60
2019-05-03T20:54:26.088Z,9.60
2019-05-03T20:56:54.717Z,9.60
2019-05-03T20:59:23.122Z,9.50
2019-05-03T21:01:51.592Z,9.60
2019-05-03T21:04:20.013Z,9.60
2019-05-03T21:06:48.493Z,9.60
2019-05-03T21:09:16.986Z,9.60
2019-05-03T21:11:45.531Z,9.60
2019-05-03T21:14:15.678Z,9.60
2019-05-03T21:16:49.150Z,9.50
2019-05-03T21:19:24.978Z,9.60
2019-05-03T21:21:55.089Z,9.60
2019-05-03T21:24:28.122Z,9.50
2019-05-03T21:26:56.570Z,9.50
2019-05-03T21:29:24.991Z,9.50
2019-05-03T21:31:55.142Z,9.50
2019-05-03T21:34:25.184Z,9.50
2019-05-03T21:36:54.469Z,9.50
2019-05-03T21:39:24.731Z,9.50
2019-05-03T21:41:55.404Z,9.50
2019-05-03T21:44:30.713Z,9.50
2019-05-03T21:47:00.802Z,9.50
2019-05-03T21:49:30.890Z,9.40
2019-05-03T21:52:05.189Z,9.40
2019-05-03T21:54:34.614Z,9.40
2019-05-03T21:57:03.154Z,9.40
2019-05-03T21:59:31.619Z,9.40
2019-05-03T22:02:00.128Z,9.40
2019-05-03T22:04:28.580Z,9.40
2019-05-03T22:06:57.021Z,9.40
2019-05-03T22:09:25.467Z,9.30
2019-05-03T22:11:54.854Z,9.30
2019-05-03T22:14:36.801Z,9.30
2019-05-03T22:17:25.214Z,9.30
2019-05-03T22:19:54.904Z,9.30
2019-05-03T22:22:39.982Z,9.30
2019-05-03T22:25:10.133Z,9.30
2019-05-03T22:27:40.264Z,9.20
2019-05-03T22:30:11.206Z,9.20
2019-05-03T22:32:40.106Z,9.20
2019-05-03T22:35:09.535Z,9.20
2019-05-03T22:37:37.954Z,9.20
2019-05-03T22:40:25.718Z,9.20
2019-05-03T22:42:54.232Z,9.20
2019-05-03T22:45:22.679Z,9.20
2019-05-03T22:47:51.111Z,9.20
2019-05-03T22:50:19.608Z,9.20
2019-05-03T22:52:48.531Z,9.20
2019-05-03T22:55:16.988Z,9.20
2019-05-03T22:57:45.431Z,9.30
2019-05-03T23:00:14.590Z,9.30
2019-05-03T23:02:45.530Z,9.30
2019-05-03T23:05:14.221Z,9.30
2019-05-03T23:07:44.225Z,9.30
2019-05-03T23:10:14.806Z,9.30
2019-05-03T23:12:45.120Z,9.20
2019-05-03T23:15:15.091Z,9.20
2019-05-03T23:17:45.151Z,9.20
2019-05-03T23:20:25.453Z,9.20
2019-05-03T23:22:54.752Z,9.20
2019-05-03T23:25:25.020Z,9.20
2019-05-03T23:27:55.116Z,9.10
2019-05-03T23:30:24.791Z,9.10
2019-05-03T23:32:54.717Z,9.10
2019-05-03T23:35:24.657Z,9.00
2019-05-03T23:37:54.360Z,9.00
2019-05-03T23:40:22.861Z,9.00
2019-05-03T23:42:51.262Z,8.90
2019-05-03T23:45:19.709Z,8.90
2019-05-03T23:47:49.034Z,8.90
2019-05-03T23:50:18.977Z,8.90
2019-05-03T23:52:47.459Z,8.90
2019-05-03T23:55:27.057Z,8.90
2019-05-03T23:57:55.524Z,8.90
